createdAt,value
2018-05-06T00:00:22.973Z,19.70
2018-05-06T00:01:00.241Z,19.70
2018-05-06T00:01:37.427Z,19.70
2018-05-06T00:02:14.865Z,19.70
2018-05-06T00:02:52.084Z,19.70
2018-05-06T00:03:30.265Z,19.70
2018-05-06T00:04:07.478Z,19.70
2018-05-06T00:04:44.800Z,19.70
2018-05-06T00:05:23.029Z,19.70
2018-05-06T00:06:00.280Z,19.70
2018-05-06T00:06:37.666Z,19.70
2018-05-06T00:07:15.881Z,19.70
2018-05-06T00:07:53.953Z,19.80
2018-05-06T00:08:32.157Z,19.80
2018-05-06T00:09:09.610Z,19.70
2018-05-06T00:09:47.836Z,19.80
2018-05-06T00:10:25.170Z,19.80
2018-05-06T00:11:03.477Z,19.70
2018-05-06T00:11:40.685Z,19.80
2018-05-06T00:12:17.931Z,19.80
2018-05-06T00:12:55.121Z,19.80
2018-05-06T00:13:33.314Z,19.80
2018-05-06T00:14:10.671Z,19.80
2018-05-06T00:14:48.893Z,19.80
2018-05-06T00:15:27.103Z,19.80
2018-05-06T00:16:04.321Z,19.70
2018-05-06T00:16:42.550Z,19.70
2018-05-06T00:17:19.901Z,19.80
2018-05-06T00:17:57.335Z,19.70
2018-05-06T00:18:35.506Z,19.70
2018-05-06T00:19:12.740Z,19.70
2018-05-06T00:19:50.929Z,19.70
2018-05-06T00:20:28.229Z,19.80
2018-05-06T00:21:05.630Z,19.80
2018-05-06T00:21:42.879Z,19.70
2018-05-06T00:22:21.081Z,19.70
2018-05-06T00:22:58.238Z,19.70
2018-05-06T00:23:35.704Z,19.70
2018-05-06T00:24:12.941Z,19.70
2018-05-06T00:24:50.401Z,19.70
2018-05-06T00:25:27.763Z,19.60
2018-05-06T00:26:05.051Z,19.70
2018-05-06T00:26:42.430Z,19.70
2018-05-06T00:27:19.573Z,19.70
2018-05-06T00:27:57.031Z,19.70
2018-05-06T00:28:34.402Z,19.70
2018-05-06T00:29:12.540Z,19.70
2018-05-06T00:29:49.976Z,19.70
2018-05-06T00:30:27.377Z,19.80
2018-05-06T00:31:04.747Z,19.70
2018-05-06T00:31:42.032Z,19.70
2018-05-06T00:32:19.437Z,19.70
2018-05-06T00:32:57.422Z,19.80
2018-05-06T00:33:35.439Z,19.70
2018-05-06T00:34:13.509Z,19.70
2018-05-06T00:34:50.961Z,19.70
2018-05-06T00:35:28.388Z,19.70
2018-05-06T00:36:06.344Z,19.70
2018-05-06T00:36:44.544Z,19.70
2018-05-06T00:37:21.874Z,19.70
2018-05-06T00:37:59.267Z,19.70
2018-05-06T00:38:36.451Z,19.70
2018-05-06T00:39:13.622Z,19.70
2018-05-06T00:39:51.830Z,19.70
2018-05-06T00:40:29.185Z,19.70
2018-05-06T00:41:07.437Z,19.70
2018-05-06T00:41:44.581Z,19.70
2018-05-06T00:42:21.922Z,19.70
2018-05-06T00:43:00.146Z,19.70
2018-05-06T00:43:37.531Z,19.70
2018-05-06T00:44:14.766Z,19.70
2018-05-06T00:44:52.011Z,19.70
2018-05-06T00:45:29.266Z,19.70
2018-05-06T00:46:07.508Z,19.70
2018-05-06T00:46:44.730Z,19.70
2018-05-06T00:47:21.939Z,19.70
2018-05-06T00:47:59.293Z,19.70
2018-05-06T00:48:37.494Z,19.70
2018-05-06T00:49:15.653Z,19.70
2018-05-06T00:49:53.785Z,19.70
2018-05-06T00:50:31.097Z,19.70
2018-05-06T00:51:08.246Z,19.70
2018-05-06T00:51:45.572Z,19.70
2018-05-06T00:52:22.724Z,19.70
2018-05-06T00:52:59.898Z,19.70
2018-05-06T00:53:37.158Z,19.70
2018-05-06T00:54:14.617Z,19.70
2018-05-06T00:54:52.778Z,19.70
2018-05-06T00:55:30.088Z,19.70
2018-05-06T00:56:07.460Z,19.70
2018-05-06T00:56:45.505Z,19.70
2018-05-06T00:57:23.756Z,19.60
2018-05-06T00:58:00.944Z,19.60
2018-05-06T00:58:38.326Z,19.70
2018-05-06T00:59:16.553Z,19.70
2018-05-06T00:59:54.029Z,19.70
2018-05-06T01:00:31.348Z,19.70
2018-05-06T01:01:08.695Z,19.70
2018-05-06T01:01:46.670Z,19.70
2018-05-06T01:02:24.063Z,19.70
2018-05-06T01:03:01.401Z,19.70
2018-05-06T01:03:39.395Z,19.70
2018-05-06T01:04:17.649Z,19.60
2018-05-06T01:04:54.840Z,19.60
2018-05-06T01:05:32.188Z,19.70
2018-05-06T01:06:10.350Z,19.60
2018-05-06T01:06:48.554Z,19.60
2018-05-06T01:07:26.023Z,19.60
2018-05-06T01:08:03.320Z,19.60
2018-05-06T01:08:40.698Z,19.60
2018-05-06T01:09:18.103Z,19.60
2018-05-06T01:09:56.155Z,19.60
2018-05-06T01:10:34.135Z,19.60
2018-05-06T01:11:12.355Z,19.60
2018-05-06T01:11:49.554Z,19.60
2018-05-06T01:12:26.934Z,19.60
2018-05-06T01:13:04.238Z,19.60
2018-05-06T01:13:41.499Z,19.70
2018-05-06T01:14:18.729Z,19.60
2018-05-06T01:14:55.892Z,19.60
2018-05-06T01:15:33.144Z,19.70
2018-05-06T01:16:10.382Z,19.70
2018-05-06T01:16:47.642Z,19.70
2018-05-06T01:17:24.869Z,19.70
2018-05-06T01:18:03.088Z,19.70
2018-05-06T01:18:40.344Z,19.70
2018-05-06T01:19:17.754Z,19.70
2018-05-06T01:19:54.938Z,19.70
2018-05-06T01:20:32.234Z,19.70
2018-05-06T01:21:09.414Z,19.60
2018-05-06T01:21:46.766Z,19.70
2018-05-06T01:22:24.794Z,19.60
2018-05-06T01:23:02.195Z,19.60
2018-05-06T01:23:39.474Z,19.60
2018-05-06T01:24:17.646Z,19.70
2018-05-06T01:24:55.624Z,19.70
2018-05-06T01:25:32.987Z,19.70
2018-05-06T01:26:10.153Z,19.70
2018-05-06T01:26:48.388Z,19.60
2018-05-06T01:27:25.614Z,19.60
2018-05-06T01:28:03.077Z,19.60
2018-05-06T01:28:41.228Z,19.60
2018-05-06T01:29:18.541Z,19.60
2018-05-06T01:29:56.773Z,19.60
2018-05-06T01:30:33.946Z,19.60
2018-05-06T01:31:11.196Z,19.60
2018-05-06T01:31:48.632Z,19.60
2018-05-06T01:32:26.749Z,19.60
2018-05-06T01:33:03.964Z,19.60
2018-05-06T01:33:41.370Z,19.60
2018-05-06T01:34:18.508Z,19.60
2018-05-06T01:34:55.707Z,19.60
2018-05-06T01:35:33.905Z,19.60
2018-05-06T01:36:11.143Z,19.60
2018-05-06T01:36:49.379Z,19.60
2018-05-06T01:37:26.725Z,19.60
2018-05-06T01:38:04.946Z,19.60
2018-05-06T01:38:42.314Z,19.50
2018-05-06T01:39:19.764Z,19.60
2018-05-06T01:39:56.991Z,19.50
2018-05-06T01:40:34.554Z,19.50
2018-05-06T01:41:12.040Z,19.50
2018-05-06T01:41:49.383Z,19.60
2018-05-06T01:42:27.617Z,19.60
2018-05-06T01:43:04.943Z,19.50
2018-05-06T01:43:43.068Z,19.50
2018-05-06T01:44:20.399Z,19.50
2018-05-06T01:44:57.777Z,19.50
2018-05-06T01:45:35.025Z,19.50
2018-05-06T01:46:13.191Z,19.50
2018-05-06T01:46:50.557Z,19.50
2018-05-06T01:47:28.558Z,19.50
2018-05-06T01:48:06.020Z,19.50
2018-05-06T01:48:44.129Z,19.50
2018-05-06T01:49:21.387Z,19.50
2018-05-06T01:49:59.663Z,19.50
2018-05-06T01:50:37.590Z,19.50
2018-05-06T01:51:15.568Z,19.50
2018-05-06T01:51:52.900Z,19.50
2018-05-06T01:52:31.066Z,19.60
2018-05-06T01:53:08.422Z,19.50
2018-05-06T01:53:46.466Z,19.50
2018-05-06T01:54:24.437Z,19.50
2018-05-06T01:55:01.673Z,19.10
2018-05-06T01:55:38.989Z,19.50
2018-05-06T01:56:16.389Z,19.50
2018-05-06T01:56:54.547Z,19.50
2018-05-06T01:57:32.621Z,19.50
2018-05-06T01:58:10.060Z,19.50
2018-05-06T01:58:47.426Z,19.40
2018-05-06T01:59:24.731Z,19.50
2018-05-06T02:00:02.849Z,19.50
2018-05-06T02:00:40.967Z,19.50
2018-05-06T02:01:18.418Z,19.50
2018-05-06T02:01:56.426Z,19.50
2018-05-06T02:02:34.479Z,19.50
2018-05-06T02:03:11.896Z,19.50
2018-05-06T02:03:49.323Z,19.40
2018-05-06T02:04:26.746Z,19.50
2018-05-06T02:05:04.011Z,19.50
2018-05-06T02:05:41.386Z,19.50
2018-05-06T02:06:19.649Z,19.50
2018-05-06T02:06:56.832Z,19.50
2018-05-06T02:07:34.950Z,19.50
2018-05-06T02:08:12.238Z,19.50
2018-05-06T02:08:49.462Z,19.50
2018-05-06T02:09:27.614Z,19.50
2018-05-06T02:10:04.979Z,19.50
2018-05-06T02:10:42.244Z,19.60
2018-05-06T02:11:19.590Z,19.50
2018-05-06T02:11:57.617Z,19.50
2018-05-06T02:12:35.077Z,19.50
2018-05-06T02:13:13.264Z,19.50
2018-05-06T02:13:51.482Z,19.50
2018-05-06T02:14:29.784Z,19.60
2018-05-06T02:15:07.188Z,19.60
2018-05-06T02:15:45.150Z,19.50
2018-05-06T02:16:22.492Z,19.60
2018-05-06T02:17:00.723Z,19.60
2018-05-06T02:17:38.095Z,19.60
2018-05-06T02:18:16.318Z,19.60
2018-05-06T02:18:54.488Z,19.60
2018-05-06T02:19:31.865Z,19.50
2018-05-06T02:20:09.227Z,19.60
2018-05-06T02:20:46.606Z,19.60
2018-05-06T02:21:24.817Z,19.60
2018-05-06T02:22:02.261Z,19.50
2018-05-06T02:22:40.186Z,19.50
2018-05-06T02:23:18.383Z,19.50
2018-05-06T02:23:55.756Z,19.60
2018-05-06T02:24:33.963Z,19.50
2018-05-06T02:25:12.027Z,19.50
2018-05-06T02:25:49.388Z,19.50
2018-05-06T02:26:26.754Z,19.50
2018-05-06T02:27:05.000Z,19.50
2018-05-06T02:27:42.209Z,19.50
2018-05-06T02:28:20.337Z,19.50
2018-05-06T02:28:57.783Z,19.50
2018-05-06T02:29:35.924Z,19.50
2018-05-06T02:30:13.326Z,19.50
2018-05-06T02:30:51.491Z,19.50
2018-05-06T02:31:29.725Z,19.50
2018-05-06T02:32:06.919Z,19.50
2018-05-06T02:32:44.360Z,19.50
2018-05-06T02:33:21.712Z,19.50
2018-05-06T02:33:59.740Z,19.50
2018-05-06T02:34:37.115Z,19.50
2018-05-06T02:35:14.382Z,19.50
2018-05-06T02:35:52.562Z,19.50
2018-05-06T02:36:29.858Z,19.50
2018-05-06T02:37:07.237Z,19.60
2018-05-06T02:37:44.397Z,19.60
2018-05-06T02:38:22.359Z,19.50
2018-05-06T02:39:00.561Z,19.60
2018-05-06T02:39:37.898Z,19.60
2018-05-06T02:40:15.304Z,19.60
2018-05-06T02:40:52.617Z,19.60
2018-05-06T02:41:30.591Z,19.60
2018-05-06T02:42:07.987Z,19.50
2018-05-06T02:42:45.194Z,19.60
2018-05-06T02:43:22.636Z,19.60
2018-05-06T02:44:00.694Z,19.60
2018-05-06T02:44:38.891Z,19.60
2018-05-06T02:45:16.324Z,19.60
2018-05-06T02:45:54.465Z,19.60
2018-05-06T02:46:32.664Z,19.50
2018-05-06T02:47:10.008Z,19.50
2018-05-06T02:47:47.345Z,19.50
2018-05-06T02:48:25.331Z,19.50
2018-05-06T02:49:02.743Z,19.50
2018-05-06T02:49:40.054Z,19.50
2018-05-06T02:50:18.155Z,19.50
2018-05-06T02:50:55.628Z,19.50
2018-05-06T02:51:32.843Z,19.50
2018-05-06T02:52:10.035Z,19.50
2018-05-06T02:52:48.174Z,19.50
2018-05-06T02:53:25.578Z,19.50
2018-05-06T02:54:02.724Z,19.50
2018-05-06T02:54:39.956Z,19.50
2018-05-06T02:55:17.378Z,19.50
2018-05-06T02:55:55.558Z,19.50
2018-05-06T02:56:32.978Z,19.50
2018-05-06T02:57:10.346Z,19.50
2018-05-06T02:57:47.683Z,19.50
2018-05-06T02:58:25.819Z,19.50
2018-05-06T02:59:03.052Z,19.50
2018-05-06T02:59:40.545Z,19.50
2018-05-06T03:00:17.762Z,19.50
2018-05-06T03:00:55.177Z,19.50
2018-05-06T03:01:32.529Z,19.50
2018-05-06T03:02:10.064Z,19.60
2018-05-06T03:02:47.246Z,19.60
2018-05-06T03:03:24.645Z,19.60
2018-05-06T03:04:01.889Z,19.50
2018-05-06T03:04:39.354Z,19.50
2018-05-06T03:05:17.432Z,19.50
2018-05-06T03:05:54.781Z,19.50
2018-05-06T03:06:32.179Z,19.50
2018-05-06T03:07:10.373Z,19.40
2018-05-06T03:07:47.747Z,19.40
2018-05-06T03:08:25.152Z,19.50
2018-05-06T03:09:02.598Z,19.40
2018-05-06T03:09:39.769Z,19.50
2018-05-06T03:10:17.049Z,19.50
2018-05-06T03:10:55.187Z,19.50
2018-05-06T03:11:32.505Z,19.20
2018-05-06T03:12:10.437Z,19.50
2018-05-06T03:12:47.813Z,19.50
2018-05-06T03:13:25.201Z,19.50
2018-05-06T03:14:02.622Z,19.50
2018-05-06T03:14:40.065Z,19.50
2018-05-06T03:15:18.228Z,19.50
2018-05-06T03:15:55.646Z,19.50
2018-05-06T03:16:33.768Z,19.50
2018-05-06T03:17:11.013Z,19.50
2018-05-06T03:17:49.211Z,19.50
2018-05-06T03:18:27.472Z,19.50
2018-05-06T03:19:05.412Z,19.50
2018-05-06T03:19:43.609Z,19.50
2018-05-06T03:20:20.955Z,19.50
2018-05-06T03:20:58.258Z,19.50
2018-05-06T03:21:35.578Z,19.50
2018-05-06T03:22:12.826Z,19.50
2018-05-06T03:22:50.308Z,19.50
2018-05-06T03:23:27.477Z,19.50
2018-05-06T03:24:05.645Z,19.50
2018-05-06T03:24:43.847Z,19.50
2018-05-06T03:25:21.198Z,19.50
2018-05-06T03:25:59.264Z,19.50
2018-05-06T03:26:36.479Z,19.50
2018-05-06T03:27:14.703Z,19.50
2018-05-06T03:27:52.106Z,19.50
2018-05-06T03:28:29.296Z,19.50
2018-05-06T03:29:06.562Z,19.50
2018-05-06T03:29:44.757Z,19.50
2018-05-06T03:30:21.946Z,19.50
2018-05-06T03:30:59.116Z,19.50
2018-05-06T03:31:37.408Z,19.50
2018-05-06T03:32:14.846Z,19.50
2018-05-06T03:32:52.054Z,19.50
2018-05-06T03:33:29.269Z,19.50
2018-05-06T03:34:06.534Z,19.50
2018-05-06T03:34:43.907Z,19.50
2018-05-06T03:35:22.022Z,19.50
2018-05-06T03:35:59.368Z,19.50
2018-05-06T03:36:36.876Z,19.50
2018-05-06T03:37:14.149Z,19.50
2018-05-06T03:37:51.334Z,19.50
2018-05-06T03:38:28.650Z,19.50
2018-05-06T03:39:05.830Z,19.50
2018-05-06T03:39:43.257Z,19.50
2018-05-06T03:40:20.487Z,19.50
2018-05-06T03:40:57.969Z,19.50
2018-05-06T03:41:36.262Z,19.50
2018-05-06T03:42:13.548Z,19.50
2018-05-06T03:42:51.777Z,19.50
2018-05-06T03:43:29.151Z,19.50
2018-05-06T03:44:06.360Z,19.50
2018-05-06T03:44:43.840Z,19.50
2018-05-06T03:45:21.776Z,19.50
2018-05-06T03:45:59.158Z,19.40
2018-05-06T03:46:36.303Z,19.40
2018-05-06T03:47:14.456Z,19.40
2018-05-06T03:47:51.859Z,19.40
2018-05-06T03:48:29.275Z,19.50
2018-05-06T03:49:06.459Z,19.40
2018-05-06T03:49:44.695Z,19.40
2018-05-06T03:50:21.914Z,19.40
2018-05-06T03:50:59.213Z,19.50
2018-05-06T03:51:36.501Z,19.40
2018-05-06T03:52:13.913Z,19.50
2018-05-06T03:52:51.028Z,19.50
2018-05-06T03:53:28.395Z,19.40
2018-05-06T03:54:05.650Z,19.50
2018-05-06T03:54:43.770Z,19.40
2018-05-06T03:55:21.745Z,19.40
2018-05-06T03:55:58.901Z,19.40
2018-05-06T03:56:37.121Z,19.40
2018-05-06T03:57:14.460Z,19.40
2018-05-06T03:57:52.590Z,19.50
2018-05-06T03:58:30.028Z,19.50
2018-05-06T03:59:07.331Z,19.50
2018-05-06T03:59:44.722Z,19.60
2018-05-06T04:00:22.795Z,19.60
2018-05-06T04:01:00.904Z,19.60
2018-05-06T04:01:38.269Z,19.60
2018-05-06T04:02:16.479Z,19.50
2018-05-06T04:02:53.822Z,19.60
2018-05-06T04:03:31.966Z,19.60
2018-05-06T04:04:09.280Z,19.60
2018-05-06T04:04:46.645Z,19.60
2018-05-06T04:05:23.881Z,19.50
2018-05-06T04:06:01.271Z,19.50
2018-05-06T04:06:38.692Z,19.50
2018-05-06T04:07:15.960Z,19.50
2018-05-06T04:07:53.343Z,19.50
2018-05-06T04:08:30.525Z,19.60
2018-05-06T04:09:08.537Z,19.60
2018-05-06T04:09:46.719Z,19.60
2018-05-06T04:10:23.926Z,19.60
2018-05-06T04:11:01.210Z,19.60
2018-05-06T04:11:39.413Z,19.60
2018-05-06T04:12:17.466Z,19.60
2018-05-06T04:12:54.790Z,19.60
2018-05-06T04:13:32.000Z,19.60
2018-05-06T04:14:09.264Z,19.60
2018-05-06T04:14:46.713Z,19.60
2018-05-06T04:15:24.040Z,19.60
2018-05-06T04:16:01.485Z,19.60
2018-05-06T04:16:38.894Z,19.60
2018-05-06T04:17:16.210Z,19.60
2018-05-06T04:17:53.433Z,19.70
2018-05-06T04:18:30.596Z,19.60
2018-05-06T04:19:08.047Z,19.70
2018-05-06T04:19:45.481Z,19.60
2018-05-06T04:20:22.873Z,19.70
2018-05-06T04:21:00.217Z,19.70
2018-05-06T04:21:37.569Z,19.70
2018-05-06T04:22:15.006Z,19.70
2018-05-06T04:22:52.430Z,19.70
2018-05-06T04:23:29.833Z,19.70
2018-05-06T04:24:07.274Z,19.70
2018-05-06T04:24:44.644Z,19.70
2018-05-06T04:25:22.082Z,19.60
2018-05-06T04:26:00.268Z,19.70
2018-05-06T04:26:37.668Z,19.60
2018-05-06T04:27:14.867Z,19.70
2018-05-06T04:27:52.365Z,19.60
2018-05-06T04:28:29.792Z,19.60
2018-05-06T04:29:07.214Z,19.60
2018-05-06T04:29:44.629Z,19.60
2018-05-06T04:30:22.917Z,19.60
2018-05-06T04:31:00.223Z,19.60
2018-05-06T04:31:38.388Z,19.60
2018-05-06T04:32:15.770Z,19.60
2018-05-06T04:32:53.002Z,19.60
2018-05-06T04:33:30.393Z,19.60
2018-05-06T04:34:07.567Z,19.50
2018-05-06T04:34:44.718Z,19.50
2018-05-06T04:35:22.198Z,19.50
2018-05-06T04:36:00.340Z,19.50
2018-05-06T04:36:37.689Z,19.50
2018-05-06T04:37:15.011Z,19.50
2018-05-06T04:37:53.178Z,19.50
2018-05-06T04:38:30.580Z,19.50
2018-05-06T04:39:08.782Z,19.50
2018-05-06T04:39:46.031Z,19.50
2018-05-06T04:40:24.223Z,19.50
2018-05-06T04:41:01.567Z,19.50
2018-05-06T04:41:38.786Z,19.40
2018-05-06T04:42:15.996Z,19.40
2018-05-06T04:42:53.168Z,19.40
2018-05-06T04:43:30.338Z,19.40
2018-05-06T04:44:07.720Z,19.40
2018-05-06T04:44:44.912Z,19.40
2018-05-06T04:45:22.232Z,19.40
2018-05-06T04:46:00.313Z,19.30
2018-05-06T04:46:37.565Z,19.30
2018-05-06T04:47:14.803Z,19.40
2018-05-06T04:47:52.194Z,19.40
2018-05-06T04:48:30.230Z,19.30
2018-05-06T04:49:07.465Z,19.30
2018-05-06T04:49:44.845Z,19.30
2018-05-06T04:50:22.274Z,19.30
2018-05-06T04:50:59.438Z,19.40
2018-05-06T04:51:37.621Z,19.40
2018-05-06T04:52:15.711Z,19.30
2018-05-06T04:52:53.143Z,19.30
2018-05-06T04:53:31.325Z,19.30
2018-05-06T04:54:08.510Z,19.30
2018-05-06T04:54:45.909Z,19.30
2018-05-06T04:55:23.283Z,19.30
2018-05-06T04:56:00.761Z,19.30
2018-05-06T04:56:38.183Z,19.40
2018-05-06T04:57:15.550Z,19.40
2018-05-06T04:57:53.011Z,19.30
2018-05-06T04:58:30.224Z,19.40
2018-05-06T04:59:07.429Z,19.30
2018-05-06T04:59:44.691Z,19.30
2018-05-06T05:00:22.015Z,19.40
2018-05-06T05:01:00.210Z,19.40
2018-05-06T05:01:37.431Z,19.40
2018-05-06T05:02:14.859Z,19.40
2018-05-06T05:02:52.960Z,19.40
2018-05-06T05:03:30.298Z,19.30
2018-05-06T05:04:07.557Z,19.40
2018-05-06T05:04:45.607Z,19.40
2018-05-06T05:05:22.949Z,19.30
2018-05-06T05:06:00.296Z,19.30
2018-05-06T05:06:37.510Z,19.30
2018-05-06T05:07:14.869Z,19.30
2018-05-06T05:07:52.261Z,19.30
2018-05-06T05:08:29.721Z,19.40
2018-05-06T05:09:06.899Z,19.50
2018-05-06T05:09:44.328Z,19.50
2018-05-06T05:10:21.530Z,19.50
2018-05-06T05:10:58.973Z,19.40
2018-05-06T05:11:36.395Z,19.40
2018-05-06T05:12:13.779Z,19.40
2018-05-06T05:12:51.062Z,19.40
2018-05-06T05:13:29.287Z,19.30
2018-05-06T05:14:07.470Z,19.30
2018-05-06T05:14:44.890Z,19.30
2018-05-06T05:15:22.830Z,19.20
2018-05-06T05:16:00.253Z,19.20
2018-05-06T05:16:37.618Z,19.20
2018-05-06T05:17:15.790Z,19.20
2018-05-06T05:17:53.141Z,19.20
2018-05-06T05:18:31.257Z,19.20
2018-05-06T05:19:08.517Z,19.20
2018-05-06T05:19:45.802Z,19.20
2018-05-06T05:20:23.894Z,19.20
2018-05-06T05:21:01.129Z,19.20
2018-05-06T05:21:38.297Z,19.30
2018-05-06T05:22:15.707Z,19.20
2018-05-06T05:22:52.922Z,19.30
2018-05-06T05:23:31.074Z,19.20
2018-05-06T05:24:09.303Z,19.30
2018-05-06T05:24:46.709Z,19.30
2018-05-06T05:25:24.853Z,19.30
2018-05-06T05:26:02.231Z,19.30
2018-05-06T05:26:39.612Z,19.30
2018-05-06T05:27:17.808Z,19.40
2018-05-06T05:27:54.973Z,19.40
2018-05-06T05:28:33.173Z,19.40
2018-05-06T05:29:10.299Z,19.40
2018-05-06T05:29:47.690Z,19.40
2018-05-06T05:30:25.122Z,19.40
2018-05-06T05:31:03.279Z,19.40
2018-05-06T05:31:40.475Z,19.40
2018-05-06T05:32:17.723Z,19.50
2018-05-06T05:32:55.138Z,19.40
2018-05-06T05:33:32.634Z,19.40
2018-05-06T05:34:10.652Z,19.30
2018-05-06T05:34:48.570Z,19.30
2018-05-06T05:35:25.898Z,19.30
2018-05-06T05:36:03.325Z,19.40
2018-05-06T05:36:41.510Z,19.30
2018-05-06T05:37:19.625Z,19.40
2018-05-06T05:37:56.965Z,19.30
2018-05-06T05:38:35.094Z,19.40
2018-05-06T05:39:12.566Z,19.30
2018-05-06T05:39:49.726Z,19.40
2018-05-06T05:40:26.892Z,19.40
2018-05-06T05:41:04.285Z,19.30
2018-05-06T05:41:41.606Z,19.30
2018-05-06T05:42:18.798Z,19.20
2018-05-06T05:42:56.288Z,19.20
2018-05-06T05:43:33.549Z,19.20
2018-05-06T05:44:10.929Z,19.20
2018-05-06T05:44:48.407Z,19.20
2018-05-06T05:45:25.823Z,19.20
2018-05-06T05:46:03.936Z,19.20
2018-05-06T05:46:41.313Z,19.20
2018-05-06T05:47:18.501Z,19.20
2018-05-06T05:47:55.968Z,19.20
2018-05-06T05:48:33.029Z,19.20
2018-05-06T05:49:10.460Z,19.20
2018-05-06T05:49:47.822Z,19.30
2018-05-06T05:50:25.233Z,19.30
2018-05-06T05:51:02.536Z,19.30
2018-05-06T05:51:39.908Z,19.30
2018-05-06T05:52:17.239Z,19.30
2018-05-06T05:52:54.749Z,19.40
2018-05-06T05:53:31.909Z,19.40
2018-05-06T05:54:09.290Z,19.40
2018-05-06T05:54:46.760Z,19.30
2018-05-06T05:55:24.970Z,19.30
2018-05-06T05:56:03.061Z,19.30
2018-05-06T05:56:41.149Z,19.30
2018-05-06T05:57:18.385Z,19.30
2018-05-06T05:57:55.927Z,19.30
2018-05-06T05:58:33.110Z,19.30
2018-05-06T05:59:11.159Z,19.30
2018-05-06T05:59:49.363Z,19.30
2018-05-06T06:00:26.615Z,19.30
2018-05-06T06:01:03.876Z,19.30
2018-05-06T06:01:41.906Z,19.30
2018-05-06T06:02:19.352Z,19.30
2018-05-06T06:02:56.733Z,19.20
2018-05-06T06:03:34.171Z,19.20
2018-05-06T06:04:12.320Z,19.20
2018-05-06T06:04:50.521Z,19.20
2018-05-06T06:05:27.912Z,19.20
2018-05-06T06:06:05.218Z,19.20
2018-05-06T06:06:42.745Z,19.20
2018-05-06T06:07:20.814Z,19.20
2018-05-06T06:07:58.855Z,19.20
2018-05-06T06:08:36.379Z,19.20
2018-05-06T06:09:13.868Z,19.20
2018-05-06T06:09:51.090Z,19.20
2018-05-06T06:10:29.089Z,19.20
2018-05-06T06:11:07.251Z,19.30
2018-05-06T06:11:45.264Z,19.20
2018-05-06T06:12:22.486Z,19.30
2018-05-06T06:13:00.716Z,19.30
2018-05-06T06:13:38.113Z,19.30
2018-05-06T06:14:15.338Z,19.30
2018-05-06T06:14:53.567Z,19.30
2018-05-06T06:15:31.864Z,19.30
2018-05-06T06:16:09.198Z,19.30
2018-05-06T06:16:47.396Z,19.30
2018-05-06T06:17:24.746Z,19.30
2018-05-06T06:18:02.041Z,19.30
2018-05-06T06:18:40.176Z,19.30
2018-05-06T06:19:17.594Z,19.30
2018-05-06T06:19:54.808Z,19.30
2018-05-06T06:20:32.224Z,19.40
2018-05-06T06:21:09.595Z,19.30
2018-05-06T06:21:47.042Z,19.30
2018-05-06T06:22:24.964Z,19.30
2018-05-06T06:23:02.301Z,19.30
2018-05-06T06:23:39.727Z,19.30
2018-05-06T06:24:16.991Z,19.30
2018-05-06T06:24:54.510Z,19.40
2018-05-06T06:25:31.714Z,19.40
2018-05-06T06:26:09.133Z,19.40
2018-05-06T06:26:46.313Z,19.40
2018-05-06T06:27:23.731Z,19.30
2018-05-06T06:28:01.947Z,19.20
2018-05-06T06:28:40.147Z,19.30
2018-05-06T06:29:17.437Z,19.20
2018-05-06T06:29:55.519Z,19.30
2018-05-06T06:30:33.723Z,19.30
2018-05-06T06:31:11.142Z,19.30
2018-05-06T06:31:48.430Z,19.30
2018-05-06T06:32:26.718Z,19.40
2018-05-06T06:33:04.862Z,19.40
2018-05-06T06:33:42.121Z,19.30
2018-05-06T06:34:20.315Z,19.40
2018-05-06T06:34:57.759Z,19.30
2018-05-06T06:35:36.034Z,19.30
2018-05-06T06:36:13.164Z,19.30
2018-05-06T06:36:50.554Z,19.30
2018-05-06T06:37:27.943Z,19.30
2018-05-06T06:38:05.127Z,19.30
2018-05-06T06:38:42.406Z,19.30
2018-05-06T06:39:20.354Z,19.30
2018-05-06T06:39:57.763Z,19.30
2018-05-06T06:40:35.099Z,19.40
2018-05-06T06:41:13.303Z,19.30
2018-05-06T06:41:50.716Z,19.30
2018-05-06T06:42:28.799Z,19.30
2018-05-06T06:43:06.180Z,19.30
2018-05-06T06:43:43.478Z,19.40
2018-05-06T06:44:20.791Z,19.30
2018-05-06T06:44:58.966Z,19.30
2018-05-06T06:45:36.212Z,19.30
2018-05-06T06:46:14.294Z,19.30
2018-05-06T06:46:51.497Z,19.30
2018-05-06T06:47:28.704Z,19.30
2018-05-06T06:48:05.996Z,19.30
2018-05-06T06:48:43.366Z,19.30
2018-05-06T06:49:20.549Z,19.40
2018-05-06T06:49:57.971Z,19.40
2018-05-06T06:50:35.371Z,19.40
2018-05-06T06:51:12.646Z,19.50
2018-05-06T06:51:49.805Z,19.40
2018-05-06T06:52:27.253Z,19.40
2018-05-06T06:53:04.623Z,19.40
2018-05-06T06:53:42.780Z,19.50
2018-05-06T06:54:19.968Z,19.50
2018-05-06T06:54:57.230Z,19.50
2018-05-06T06:55:34.593Z,19.50
2018-05-06T06:56:11.959Z,19.40
2018-05-06T06:56:49.866Z,19.40
2018-05-06T06:57:27.348Z,19.40
2018-05-06T06:58:05.538Z,19.40
2018-05-06T06:58:42.700Z,19.40
2018-05-06T06:59:20.007Z,19.40
2018-05-06T06:59:57.170Z,19.40
2018-05-06T07:00:34.399Z,19.40
2018-05-06T07:01:11.589Z,19.40
2018-05-06T07:01:48.828Z,19.40
2018-05-06T07:02:26.229Z,19.50
2018-05-06T07:03:04.388Z,19.40
2018-05-06T07:03:41.618Z,19.40
2018-05-06T07:04:19.796Z,19.50
2018-05-06T07:04:57.117Z,19.50
2018-05-06T07:05:34.401Z,19.50
2018-05-06T07:06:11.616Z,19.50
2018-05-06T07:06:48.778Z,19.50
2018-05-06T07:07:26.060Z,19.50
2018-05-06T07:08:03.459Z,19.60
2018-05-06T07:08:40.842Z,19.50
2018-05-06T07:09:18.162Z,19.60
2018-05-06T07:09:55.467Z,19.60
2018-05-06T07:10:32.736Z,19.60
2018-05-06T07:11:10.127Z,19.60
2018-05-06T07:11:47.565Z,19.60
2018-05-06T07:12:24.960Z,19.60
2018-05-06T07:13:03.159Z,19.60
2018-05-06T07:13:40.447Z,19.60
2018-05-06T07:14:17.830Z,19.60
2018-05-06T07:14:56.089Z,19.60
2018-05-06T07:15:34.102Z,19.60
2018-05-06T07:16:11.510Z,19.60
2018-05-06T07:16:49.755Z,19.50
2018-05-06T07:17:27.054Z,19.50
2018-05-06T07:18:04.255Z,19.50
2018-05-06T07:18:41.484Z,19.50
2018-05-06T07:19:18.952Z,19.60
2018-05-06T07:19:56.077Z,19.60
2018-05-06T07:20:34.157Z,19.60
2018-05-06T07:21:11.278Z,19.60
2018-05-06T07:21:48.686Z,19.70
2018-05-06T07:22:25.937Z,19.70
2018-05-06T07:23:03.404Z,19.70
2018-05-06T07:23:40.535Z,19.80
2018-05-06T07:24:17.733Z,19.70
2018-05-06T07:24:55.756Z,19.70
2018-05-06T07:25:33.162Z,19.70
2018-05-06T07:26:11.363Z,19.70
2018-05-06T07:26:48.789Z,19.70
2018-05-06T07:27:26.114Z,19.70
2018-05-06T07:28:03.417Z,19.80
2018-05-06T07:28:40.833Z,19.70
2018-05-06T07:29:18.175Z,19.80
2018-05-06T07:29:56.191Z,19.90
2018-05-06T07:30:34.328Z,19.80
2018-05-06T07:31:12.412Z,19.80
2018-05-06T07:31:49.834Z,19.80
2018-05-06T07:32:27.222Z,19.80
2018-05-06T07:33:05.253Z,19.90
2018-05-06T07:33:42.650Z,19.80
2018-05-06T07:34:20.676Z,19.90
2018-05-06T07:34:58.628Z,19.90
2018-05-06T07:35:35.782Z,19.90
2018-05-06T07:36:13.154Z,19.90
2018-05-06T07:36:50.302Z,19.90
2018-05-06T07:37:27.623Z,19.90
2018-05-06T07:38:05.111Z,19.90
2018-05-06T07:38:42.542Z,19.90
2018-05-06T07:39:19.963Z,19.90
2018-05-06T07:39:57.403Z,19.80
2018-05-06T07:40:35.603Z,19.80
2018-05-06T07:41:12.802Z,19.90
2018-05-06T07:41:50.054Z,19.90
2018-05-06T07:42:27.407Z,19.90
2018-05-06T07:43:05.619Z,19.90
2018-05-06T07:43:42.995Z,19.90
2018-05-06T07:44:20.986Z,20.00
2018-05-06T07:44:58.459Z,20.00
2018-05-06T07:45:35.775Z,19.90
2018-05-06T07:46:13.334Z,20.00
2018-05-06T07:46:50.746Z,20.00
2018-05-06T07:47:27.884Z,20.10
2018-05-06T07:48:06.090Z,20.00
2018-05-06T07:48:43.470Z,20.00
2018-05-06T07:49:21.661Z,20.00
2018-05-06T07:49:59.075Z,20.00
2018-05-06T07:50:37.014Z,20.00
2018-05-06T07:51:14.464Z,20.00
2018-05-06T07:51:51.904Z,19.90
2018-05-06T07:52:29.911Z,19.80
2018-05-06T07:53:07.232Z,19.80
2018-05-06T07:53:45.337Z,19.90
2018-05-06T07:54:23.434Z,19.90
2018-05-06T07:55:00.797Z,19.90
2018-05-06T07:55:38.004Z,20.00
2018-05-06T07:56:15.425Z,20.00
2018-05-06T07:56:52.638Z,20.00
2018-05-06T07:57:30.852Z,19.90
2018-05-06T07:58:09.332Z,19.90
2018-05-06T07:58:46.524Z,19.80
2018-05-06T07:59:23.894Z,19.90
2018-05-06T08:00:01.253Z,19.90
2018-05-06T08:00:39.247Z,19.80
2018-05-06T08:01:16.474Z,19.80
2018-05-06T08:01:54.514Z,19.80
2018-05-06T08:02:31.988Z,19.80
2018-05-06T08:03:09.187Z,19.90
2018-05-06T08:03:46.370Z,19.80